sensor_id;sensor_type;location;lat;lon;timestamp;temperature;humidity
19813;DHT22;10066;48.108;11.448;2024-02-26T00:01:05;1.50;99.90
19813;DHT22;10066;48.108;11.448;2024-02-26T00:03:33;1.50;99.90
19813;DHT22;10066;48.108;11.448;2024-02-26T00:06:01;1.50;99.90
19813;DHT22;10066;48.108;11.448;2024-02-26T00:08:29;1.40;99.90
19813;DHT22;10066;48.108;11.448;2024-02-26T00:10:56;1.40;99.90
19813;DHT22;10066;48.108;11.448;2024-02-26T00:13:23;1.40;99.90
19813;DHT22;10066;48.108;11.448;2024-02-26T00:15:50;1.30;99.90
19813;DHT22;10066;48.108;11.448;2024-02-26T00:18:17;1.30;99.90
19813;DHT22;10066;48.108;11.448;2024-02-26T00:20:45;1.30;99.90
19813;DHT22;10066;48.108;11.448;2024-02-26T00:23:15;1.30;99.90
19813;DHT22;10066;48.108;11.448;2024-02-26T00:25:42;1.30;99.90
19813;DHT22;10066;48.108;11.448;2024-02-26T00:28:09;1.20;99.90
19813;DHT22;10066;48.108;11.448;2024-02-26T00:30:36;1.20;99.90
19813;DHT22;10066;48.108;11.448;2024-02-26T00:33:04;1.10;99.90
19813;DHT22;10066;48.108;11.448;2024-02-26T00:35:31;1.10;99.90
19813;DHT22;10066;48.108;11.448;2024-02-26T00:37:59;1.10;99.90
19813;DHT22;10066;48.108;11.448;2024-02-26T00:40:27;1.10;99.90
19813;DHT22;10066;48.108;11.448;2024-02-26T00:42:54;1.00;99.90
19813;DHT22;10066;48.108;11.448;2024-02-26T00:45:22;1.00;99.90
19813;DHT22;10066;48.108;11.448;2024-02-26T00:47:49;1.00;99.90
19813;DHT22;10066;48.108;11.448;2024-02-26T00:50:16;1.00;99.90
19813;DHT22;10066;48.108;11.448;2024-02-26T00:52:43;1.00;99.90
19813;DHT22;10066;48.108;11.448;2024-02-26T00:55:15;1.00;99.90
19813;DHT22;10066;48.108;11.448;2024-02-26T00:57:42;1.00;99.90
19813;DHT22;10066;48.108;11.448;2024-02-26T01:00:10;1.00;99.90
19813;DHT22;10066;48.108;11.448;2024-02-26T01:02:37;1.00;99.90
19813;DHT22;10066;48.108;11.448;2024-02-26T01:05:06;1.00;99.90
19813;DHT22;10066;48.108;11.448;2024-02-26T01:07:33;1.00;99.90
19813;DHT22;10066;48.108;11.448;2024-02-26T01:10:01;1.00;99.90
19813;DHT22;10066;48.108;11.448;2024-02-26T01:12:30;1.10;99.90
19813;DHT22;10066;48.108;11.448;2024-02-26T01:14:57;1.10;99.90
19813;DHT22;10066;48.108;11.448;2024-02-26T01:17:24;1.10;99.90
19813;DHT22;10066;48.108;11.448;2024-02-26T01:19:52;1.10;99.90
19813;DHT22;10066;48.108;11.448;2024-02-26T01:22:20;1.10;99.90
19813;DHT22;10066;48.108;11.448;2024-02-26T01:24:47;1.10;99.90
19813;DHT22;10066;48.108;11.448;2024-02-26T01:27:14;1.10;99.90
19813;DHT22;10066;48.108;11.448;2024-02-26T01:29:42;1.10;99.90
19813;DHT22;10066;48.108;11.448;2024-02-26T01:32:09;1.10;99.90
19813;DHT22;10066;48.108;11.448;2024-02-26T01:34:36;1.10;99.90
19813;DHT22;10066;48.108;11.448;2024-02-26T01:37:03;1.10;99.90
19813;DHT22;10066;48.108;11.448;2024-02-26T01:39:30;1.00;99.90
19813;DHT22;10066;48.108;11.448;2024-02-26T01:41:57;1.00;99.90
19813;DHT22;10066;48.108;11.448;2024-02-26T01:44:26;1.00;99.90
19813;DHT22;10066;48.108;11.448;2024-02-26T01:46:54;1.00;99.90
19813;DHT22;10066;48.108;11.448;2024-02-26T01:49:22;1.00;99.90
19813;DHT22;10066;48.108;11.448;2024-02-26T01:51:49;1.00;99.90
19813;DHT22;10066;48.108;11.448;2024-02-26T01:54:16;1.00;99.90
19813;DHT22;10066;48.108;11.448;2024-02-26T01:56:43;1.00;99.90
19813;DHT22;10066;48.108;11.448;2024-02-26T01:59:11;0.90;99.90
19813;DHT22;10066;48.108;11.448;2024-02-26T02:01:38;0.90;99.90
19813;DHT22;10066;48.108;11.448;2024-02-26T02:04:09;0.90;99.90
19813;DHT22;10066;48.108;11.448;2024-02-26T02:06:36;0.90;99.90
19813;DHT22;10066;48.108;11.448;2024-02-26T02:09:04;0.90;99.90
19813;DHT22;10066;48.108;11.448;2024-02-26T02:11:33;0.90;99.90
19813;DHT22;10066;48.108;11.448;2024-02-26T02:14:00;0.90;99.90
19813;DHT22;10066;48.108;11.448;2024-02-26T02:16:27;0.90;99.90
19813;DHT22;10066;48.108;11.448;2024-02-26T02:18:54;0.90;99.90
19813;DHT22;10066;48.108;11.448;2024-02-26T02:21:22;0.90;99.90
19813;DHT22;10066;48.108;11.448;2024-02-26T02:23:49;0.90;99.90
19813;DHT22;10066;48.108;11.448;2024-02-26T02:26:16;0.80;99.90
19813;DHT22;10066;48.108;11.448;2024-02-26T02:28:45;0.90;99.90
19813;DHT22;10066;48.108;11.448;2024-02-26T02:31:13;0.80;99.90
19813;DHT22;10066;48.108;11.448;2024-02-26T02:33:40;0.80;99.90
19813;DHT22;10066;48.108;11.448;2024-02-26T02:36:07;0.80;99.90
19813;DHT22;10066;48.108;11.448;2024-02-26T02:38:37;0.90;99.90
19813;DHT22;10066;48.108;11.448;2024-02-26T02:41:04;0.90;99.90
19813;DHT22;10066;48.108;11.448;2024-02-26T02:43:32;0.90;99.90
19813;DHT22;10066;48.108;11.448;2024-02-26T02:45:59;0.90;99.90
19813;DHT22;10066;48.108;11.448;2024-02-26T02:48:26;0.90;99.90
19813;DHT22;10066;48.108;11.448;2024-02-26T02:50:53;0.90;99.90
19813;DHT22;10066;48.108;11.448;2024-02-26T02:53:20;0.90;99.90
19813;DHT22;10066;48.108;11.448;2024-02-26T02:55:49;1.00;99.90
19813;DHT22;10066;48.108;11.448;2024-02-26T02:58:16;0.90;99.90
19813;DHT22;10066;48.108;11.448;2024-02-26T03:00:43;1.00;99.90
19813;DHT22;10066;48.108;11.448;2024-02-26T03:03:10;0.90;99.90
19813;DHT22;10066;48.108;11.448;2024-02-26T03:05:37;0.90;99.90
19813;DHT22;10066;48.108;11.448;2024-02-26T03:08:04;0.90;99.90
19813;DHT22;10066;48.108;11.448;2024-02-26T03:10:32;0.90;99.90
19813;DHT22;10066;48.108;11.448;2024-02-26T03:13:00;0.90;99.90
19813;DHT22;10066;48.108;11.448;2024-02-26T03:15:27;0.90;99.90
19813;DHT22;10066;48.108;11.448;2024-02-26T03:17:54;0.90;99.90
19813;DHT22;10066;48.108;11.448;2024-02-26T03:20:21;0.80;99.90
19813;DHT22;10066;48.108;11.448;2024-02-26T03:22:48;0.80;99.90
19813;DHT22;10066;48.108;11.448;2024-02-26T03:25:15;0.90;99.90
19813;DHT22;10066;48.108;11.448;2024-02-26T03:27:42;0.90;99.90
19813;DHT22;10066;48.108;11.448;2024-02-26T03:30:11;0.90;99.90
19813;DHT22;10066;48.108;11.448;2024-02-26T03:32:38;1.00;99.90
19813;DHT22;10066;48.108;11.448;2024-02-26T03:35:05;1.10;99.90
19813;DHT22;10066;48.108;11.448;2024-02-26T03:37:33;1.10;99.90
19813;DHT22;10066;48.108;11.448;2024-02-26T03:40:00;1.20;99.90
19813;DHT22;10066;48.108;11.448;2024-02-26T03:42:27;1.20;99.90
19813;DHT22;10066;48.108;11.448;2024-02-26T03:44:53;1.20;99.90
19813;DHT22;10066;48.108;11.448;2024-02-26T03:47:22;1.30;99.90
19813;DHT22;10066;48.108;11.448;2024-02-26T03:49:49;1.30;99.90
19813;DHT22;10066;48.108;11.448;2024-02-26T03:52:16;1.30;99.90
19813;DHT22;10066;48.108;11.448;2024-02-26T03:54:43;1.40;99.90
19813;DHT22;10066;48.108;11.448;2024-02-26T03:57:11;1.40;99.90
19813;DHT22;10066;48.108;11.448;2024-02-26T03:59:38;1.40;99.90
19813;DHT22;10066;48.108;11.448;2024-02-26T04:02:06;1.40;99.90
19813;DHT22;10066;48.108;11.448;2024-02-26T04:04:35;1.40;99.90
19813;DHT22;10066;48.108;11.448;2024-02-26T04:07:02;1.30;99.90
19813;DHT22;10066;48.108;11.448;2024-02-26T04:09:31;1.30;99.90
19813;DHT22;10066;48.108;11.448;2024-02-26T04:11:59;1.30;99.90
19813;DHT22;10066;48.108;11.448;2024-02-26T04:14:26;1.20;99.90
19813;DHT22;10066;48.108;11.448;2024-02-26T04:16:53;1.20;99.90
19813;DHT22;10066;48.108;11.448;2024-02-26T04:19:20;1.20;99.90
19813;DHT22;10066;48.108;11.448;2024-02-26T04:21:48;1.20;99.90
19813;DHT22;10066;48.108;11.448;2024-02-26T04:24:15;1.20;99.90
19813;DHT22;10066;48.108;11.448;2024-02-26T04:26:44;1.20;99.90
19813;DHT22;10066;48.108;11.448;2024-02-26T04:29:11;1.30;99.90
19813;DHT22;10066;48.108;11.448;2024-02-26T04:31:38;1.30;99.90
19813;DHT22;10066;48.108;11.448;2024-02-26T04:34:05;1.30;99.90
19813;DHT22;10066;48.108;11.448;2024-02-26T04:36:32;1.30;99.90
19813;DHT22;10066;48.108;11.448;2024-02-26T04:39:00;1.30;99.90
19813;DHT22;10066;48.108;11.448;2024-02-26T04:41:29;1.30;99.90
19813;DHT22;10066;48.108;11.448;2024-02-26T04:43:56;1.30;99.90
19813;DHT22;10066;48.108;11.448;2024-02-26T04:46:23;1.40;99.90
19813;DHT22;10066;48.108;11.448;2024-02-26T04:48:51;1.30;99.90
19813;DHT22;10066;48.108;11.448;2024-02-26T04:51:18;1.30;99.90
19813;DHT22;10066;48.108;11.448;2024-02-26T04:53:45;1.30;99.90
19813;DHT22;10066;48.108;11.448;2024-02-26T04:56:13;1.30;99.90
19813;DHT22;10066;48.108;11.448;2024-02-26T04:58:41;1.30;99.90
19813;DHT22;10066;48.108;11.448;2024-02-26T05:01:08;1.30;99.90
19813;DHT22;10066;48.108;11.448;2024-02-26T05:03:36;1.20;99.90
19813;DHT22;10066;48.108;11.448;2024-02-26T05:06:04;1.20;99.90
19813;DHT22;10066;48.108;11.448;2024-02-26T05:08:31;1.20;99.90
19813;DHT22;10066;48.108;11.448;2024-02-26T05:10:59;1.10;99.90
19813;DHT22;10066;48.108;11.448;2024-02-26T05:13:29;1.10;99.90
19813;DHT22;10066;48.108;11.448;2024-02-26T05:15:56;1.20;99.90
19813;DHT22;10066;48.108;11.448;2024-02-26T05:18:23;1.20;99.90
19813;DHT22;10066;48.108;11.448;2024-02-26T05:20:50;1.40;99.90
19813;DHT22;10066;48.108;11.448;2024-02-26T05:23:17;1.50;99.90
19813;DHT22;10066;48.108;11.448;2024-02-26T05:25:44;1.70;99.90
19813;DHT22;10066;48.108;11.448;2024-02-26T05:28:13;1.80;99.90
19813;DHT22;10066;48.108;11.448;2024-02-26T05:30:42;1.80;99.90
19813;DHT22;10066;48.108;11.448;2024-02-26T05:33:09;2.00;99.90
19813;DHT22;10066;48.108;11.448;2024-02-26T05:35:37;2.10;99.90
19813;DHT22;10066;48.108;11.448;2024-02-26T05:38:04;2.10;99.90
19813;DHT22;10066;48.108;11.448;2024-02-26T05:40:31;2.00;99.90
19813;DHT22;10066;48.108;11.448;2024-02-26T05:42:58;2.10;99.90
19813;DHT22;10066;48.108;11.448;2024-02-26T05:45:25;2.20;99.90
19813;DHT22;10066;48.108;11.448;2024-02-26T05:47:54;2.20;99.90
19813;DHT22;10066;48.108;11.448;2024-02-26T05:50:21;2.30;99.90
19813;DHT22;10066;48.108;11.448;2024-02-26T05:52:48;2.20;99.90
19813;DHT22;10066;48.108;11.448;2024-02-26T05:55:15;2.20;99.90
19813;DHT22;10066;48.108;11.448;2024-02-26T05:57:42;2.20;99.90
19813;DHT22;10066;48.108;11.448;2024-02-26T06:00:10;2.30;99.90
19813;DHT22;10066;48.108;11.448;2024-02-26T06:02:38;2.40;99.90
19813;DHT22;10066;48.108;11.448;2024-02-26T06:05:07;2.40;99.90
19813;DHT22;10066;48.108;11.448;2024-02-26T06:07:35;2.50;99.90
19813;DHT22;10066;48.108;11.448;2024-02-26T06:10:02;2.50;99.90
19813;DHT22;10066;48.108;11.448;2024-02-26T06:12:30;2.60;99.90
19813;DHT22;10066;48.108;11.448;2024-02-26T06:14:58;2.60;99.90
19813;DHT22;10066;48.108;11.448;2024-02-26T06:17:26;2.70;99.90
19813;DHT22;10066;48.108;11.448;2024-02-26T06:19:54;2.80;99.90
19813;DHT22;10066;48.108;11.448;2024-02-26T06:22:22;2.90;99.90
19813;DHT22;10066;48.108;11.448;2024-02-26T06:24:49;3.20;99.90
19813;DHT22;10066;48.108;11.448;2024-02-26T06:27:16;3.10;99.90
19813;DHT22;10066;48.108;11.448;2024-02-26T06:29:44;3.20;99.90
19813;DHT22;10066;48.108;11.448;2024-02-26T06:32:11;3.10;99.90
19813;DHT22;10066;48.108;11.448;2024-02-26T06:34:40;3.40;99.90
19813;DHT22;10066;48.108;11.448;2024-02-26T06:37:08;3.10;99.90
19813;DHT22;10066;48.108;11.448;2024-02-26T06:39:36;3.60;99.90
19813;DHT22;10066;48.108;11.448;2024-02-26T06:42:04;3.70;99.90
19813;DHT22;10066;48.108;11.448;2024-02-26T06:44:32;3.80;99.90
19813;DHT22;10066;48.108;11.448;2024-02-26T06:46:59;3.90;99.90
19813;DHT22;10066;48.108;11.448;2024-02-26T06:51:53;4.10;99.90
19813;DHT22;10066;48.108;11.448;2024-02-26T06:54:20;4.20;99.90
19813;DHT22;10066;48.108;11.448;2024-02-26T06:56:49;4.20;99.90
19813;DHT22;10066;48.108;11.448;2024-02-26T06:59:16;4.30;99.90
19813;DHT22;10066;48.108;11.448;2024-02-26T07:01:45;4.40;99.90
19813;DHT22;10066;48.108;11.448;2024-02-26T07:04:12;4.40;99.90
19813;DHT22;10066;48.108;11.448;2024-02-26T07:06:39;4.40;99.90
19813;DHT22;10066;48.108;11.448;2024-02-26T07:09:07;4.40;99.90
19813;DHT22;10066;48.108;11.448;2024-02-26T07:11:34;4.50;99.90
19813;DHT22;10066;48.108;11.448;2024-02-26T07:14:02;4.50;99.90
19813;DHT22;10066;48.108;11.448;2024-02-26T07:16:30;4.60;99.90
19813;DHT22;10066;48.108;11.448;2024-02-26T07:18:57;4.70;99.90
19813;DHT22;10066;48.108;11.448;2024-02-26T07:21:24;4.70;99.90
19813;DHT22;10066;48.108;11.448;2024-02-26T07:23:52;4.80;99.90
19813;DHT22;10066;48.108;11.448;2024-02-26T07:26:19;4.80;99.90
19813;DHT22;10066;48.108;11.448;2024-02-26T07:28:46;4.90;99.90
19813;DHT22;10066;48.108;11.448;2024-02-26T07:31:14;5.00;99.90
19813;DHT22;10066;48.108;11.448;2024-02-26T07:33:41;5.00;99.90
19813;DHT22;10066;48.108;11.448;2024-02-26T07:36:08;5.00;99.90
19813;DHT22;10066;48.108;11.448;2024-02-26T07:38:35;5.10;99.90
19813;DHT22;10066;48.108;11.448;2024-02-26T07:41:03;5.00;99.90
19813;DHT22;10066;48.108;11.448;2024-02-26T07:43:30;5.10;99.90
19813;DHT22;10066;48.108;11.448;2024-02-26T07:45:57;5.10;99.90
19813;DHT22;10066;48.108;11.448;2024-02-26T07:48:26;5.20;99.90
19813;DHT22;10066;48.108;11.448;2024-02-26T07:50:53;5.20;99.90
19813;DHT22;10066;48.108;11.448;2024-02-26T07:53:20;5.20;99.90
19813;DHT22;10066;48.108;11.448;2024-02-26T07:55:47;5.20;99.90
19813;DHT22;10066;48.108;11.448;2024-02-26T07:58:14;5.30;99.90
19813;DHT22;10066;48.108;11.448;2024-02-26T08:00:41;5.40;99.90
19813;DHT22;10066;48.108;11.448;2024-02-26T08:03:09;5.50;99.90
19813;DHT22;10066;48.108;11.448;2024-02-26T08:05:37;5.60;99.90
19813;DHT22;10066;48.108;11.448;2024-02-26T08:08:06;5.70;99.90
19813;DHT22;10066;48.108;11.448;2024-02-26T08:10:34;5.80;99.90
19813;DHT22;10066;48.108;11.448;2024-02-26T08:13:00;5.90;99.90
19813;DHT22;10066;48.108;11.448;2024-02-26T08:15:31;6.00;99.90
19813;DHT22;10066;48.108;11.448;2024-02-26T08:18:00;6.00;99.90
19813;DHT22;10066;48.108;11.448;2024-02-26T08:20:29;6.00;99.90
19813;DHT22;10066;48.108;11.448;2024-02-26T08:22:57;6.00;99.90
19813;DHT22;10066;48.108;11.448;2024-02-26T08:25:25;6.10;99.90
19813;DHT22;10066;48.108;11.448;2024-02-26T08:27:52;6.10;99.90
19813;DHT22;10066;48.108;11.448;2024-02-26T08:30:19;6.10;99.90
19813;DHT22;10066;48.108;11.448;2024-02-26T08:32:47;6.20;99.90
19813;DHT22;10066;48.108;11.448;2024-02-26T08:35:14;6.20;99.90
19813;DHT22;10066;48.108;11.448;2024-02-26T08:37:44;6.30;99.90
19813;DHT22;10066;48.108;11.448;2024-02-26T08:40:16;6.40;99.90
19813;DHT22;10066;48.108;11.448;2024-02-26T08:42:45;6.50;99.90
19813;DHT22;10066;48.108;11.448;2024-02-26T08:45:12;6.60;99.90
19813;DHT22;10066;48.108;11.448;2024-02-26T08:47:39;6.70;99.90
19813;DHT22;10066;48.108;11.448;2024-02-26T08:50:07;6.90;99.90
19813;DHT22;10066;48.108;11.448;2024-02-26T08:52:35;7.10;99.90
19813;DHT22;10066;48.108;11.448;2024-02-26T08:55:02;7.20;99.90
19813;DHT22;10066;48.108;11.448;2024-02-26T08:57:31;7.40;99.90
19813;DHT22;10066;48.108;11.448;2024-02-26T08:59:59;7.50;99.90
19813;DHT22;10066;48.108;11.448;2024-02-26T09:02:27;7.60;99.90
19813;DHT22;10066;48.108;11.448;2024-02-26T09:04:53;7.70;99.90
19813;DHT22;10066;48.108;11.448;2024-02-26T09:07:21;7.60;99.90
19813;DHT22;10066;48.108;11.448;2024-02-26T09:09:48;7.60;99.90
19813;DHT22;10066;48.108;11.448;2024-02-26T09:12:15;7.60;99.90
19813;DHT22;10066;48.108;11.448;2024-02-26T09:14:43;7.60;99.90
19813;DHT22;10066;48.108;11.448;2024-02-26T09:17:12;7.70;99.90
19813;DHT22;10066;48.108;11.448;2024-02-26T09:19:39;7.70;99.90
19813;DHT22;10066;48.108;11.448;2024-02-26T09:22:07;7.80;99.90
19813;DHT22;10066;48.108;11.448;2024-02-26T09:24:34;7.90;99.90
19813;DHT22;10066;48.108;11.448;2024-02-26T09:27:02;8.00;99.90
19813;DHT22;10066;48.108;11.448;2024-02-26T09:29:29;8.10;99.90
19813;DHT22;10066;48.108;11.448;2024-02-26T09:31:57;8.20;99.90
19813;DHT22;10066;48.108;11.448;2024-02-26T09:34:24;8.20;99.90
19813;DHT22;10066;48.108;11.448;2024-02-26T09:36:51;8.30;99.90
19813;DHT22;10066;48.108;11.448;2024-02-26T09:39:18;8.40;99.90
19813;DHT22;10066;48.108;11.448;2024-02-26T09:41:47;8.50;99.90
19813;DHT22;10066;48.108;11.448;2024-02-26T09:44:18;8.60;99.90
19813;DHT22;10066;48.108;11.448;2024-02-26T09:46:47;8.80;99.90
19813;DHT22;10066;48.108;11.448;2024-02-26T09:49:20;8.90;99.90
19813;DHT22;10066;48.108;11.448;2024-02-26T09:51:49;9.00;99.90
19813;DHT22;10066;48.108;11.448;2024-02-26T09:54:17;9.10;99.90
19813;DHT22;10066;48.108;11.448;2024-02-26T09:56:46;9.20;99.90
19813;DHT22;10066;48.108;11.448;2024-02-26T09:59:16;9.30;99.90
19813;DHT22;10066;48.108;11.448;2024-02-26T10:01:44;9.40;99.90
19813;DHT22;10066;48.108;11.448;2024-02-26T10:04:13;9.40;99.90
19813;DHT22;10066;48.108;11.448;2024-02-26T10:06:43;9.50;99.90
19813;DHT22;10066;48.108;11.448;2024-02-26T10:09:12;9.50;99.90
19813;DHT22;10066;48.108;11.448;2024-02-26T10:11:41;9.60;99.90
19813;DHT22;10066;48.108;11.448;2024-02-26T10:14:09;9.60;99.90
19813;DHT22;10066;48.108;11.448;2024-02-26T10:16:37;9.70;99.90
19813;DHT22;10066;48.108;11.448;2024-02-26T10:19:05;9.70;99.90
19813;DHT22;10066;48.108;11.448;2024-02-26T10:21:33;9.70;99.90
19813;DHT22;10066;48.108;11.448;2024-02-26T10:24:01;9.70;99.90
19813;DHT22;10066;48.108;11.448;2024-02-26T10:26:28;9.70;99.90
19813;DHT22;10066;48.108;11.448;2024-02-26T10:28:59;9.70;99.90
19813;DHT22;10066;48.108;11.448;2024-02-26T10:31:27;9.70;99.90
19813;DHT22;10066;48.108;11.448;2024-02-26T10:33:55;9.80;99.90
19813;DHT22;10066;48.108;11.448;2024-02-26T10:36:23;9.80;99.90
19813;DHT22;10066;48.108;11.448;2024-02-26T10:38:54;9.90;99.50
19813;DHT22;10066;48.108;11.448;2024-02-26T10:41:23;9.90;98.00
19813;DHT22;10066;48.108;11.448;2024-02-26T10:43:50;9.90;99.30
19813;DHT22;10066;48.108;11.448;2024-02-26T10:46:18;9.90;98.10
19813;DHT22;10066;48.108;11.448;2024-02-26T10:48:49;9.90;97.40
19813;DHT22;10066;48.108;11.448;2024-02-26T10:51:18;9.90;96.70
19813;DHT22;10066;48.108;11.448;2024-02-26T10:53:46;9.90;97.60
19813;DHT22;10066;48.108;11.448;2024-02-26T10:56:16;9.90;98.10
19813;DHT22;10066;48.108;11.448;2024-02-26T10:58:45;10.00;96.30
19813;DHT22;10066;48.108;11.448;2024-02-26T11:01:13;10.10;98.40
19813;DHT22;10066;48.108;11.448;2024-02-26T11:03:41;10.20;97.90
19813;DHT22;10066;48.108;11.448;2024-02-26T11:06:09;10.40;97.80
19813;DHT22;10066;48.108;11.448;2024-02-26T11:08:36;10.50;97.80
19813;DHT22;10066;48.108;11.448;2024-02-26T11:11:03;10.60;98.60
19813;DHT22;10066;48.108;11.448;2024-02-26T11:13:31;10.80;98.20
19813;DHT22;10066;48.108;11.448;2024-02-26T11:16:00;11.00;98.90
19813;DHT22;10066;48.108;11.448;2024-02-26T11:18:27;11.20;98.80
19813;DHT22;10066;48.108;11.448;2024-02-26T11:20:55;11.30;98.40
19813;DHT22;10066;48.108;11.448;2024-02-26T11:23:23;11.50;97.80
19813;DHT22;10066;48.108;11.448;2024-02-26T11:25:51;11.60;98.50
19813;DHT22;10066;48.108;11.448;2024-02-26T11:28:19;11.70;98.10
19813;DHT22;10066;48.108;11.448;2024-02-26T11:30:48;11.80;97.60
19813;DHT22;10066;48.108;11.448;2024-02-26T11:33:18;11.90;97.00
19813;DHT22;10066;48.108;11.448;2024-02-26T11:35:46;11.90;96.50
19813;DHT22;10066;48.108;11.448;2024-02-26T11:38:19;12.00;96.40
19813;DHT22;10066;48.108;11.448;2024-02-26T11:40:47;12.10;96.20
19813;DHT22;10066;48.108;11.448;2024-02-26T11:43:14;12.10;96.20
19813;DHT22;10066;48.108;11.448;2024-02-26T11:45:50;12.20;96.20
19813;DHT22;10066;48.108;11.448;2024-02-26T11:48:23;12.30;95.90
19813;DHT22;10066;48.108;11.448;2024-02-26T11:50:52;12.30;95.30
19813;DHT22;10066;48.108;11.448;2024-02-26T11:53:20;12.30;94.40
19813;DHT22;10066;48.108;11.448;2024-02-26T11:55:48;12.30;92.50
19813;DHT22;10066;48.108;11.448;2024-02-26T11:58:15;12.30;93.40
19813;DHT22;10066;48.108;11.448;2024-02-26T12:00:42;12.30;92.20
19813;DHT22;10066;48.108;11.448;2024-02-26T12:03:10;12.30;92.70
19813;DHT22;10066;48.108;11.448;2024-02-26T12:05:39;12.30;91.60
19813;DHT22;10066;48.108;11.448;2024-02-26T12:08:07;12.40;92.10
19813;DHT22;10066;48.108;11.448;2024-02-26T12:10:36;12.40;93.30
19813;DHT22;10066;48.108;11.448;2024-02-26T12:13:07;12.60;92.40
19813;DHT22;10066;48.108;11.448;2024-02-26T12:15:38;12.60;92.10
19813;DHT22;10066;48.108;11.448;2024-02-26T12:18:06;12.80;91.20
19813;DHT22;10066;48.108;11.448;2024-02-26T12:20:35;12.90;92.30
19813;DHT22;10066;48.108;11.448;2024-02-26T12:23:04;12.90;90.00
19813;DHT22;10066;48.108;11.448;2024-02-26T12:25:32;12.90;87.10
19813;DHT22;10066;48.108;11.448;2024-02-26T12:28:00;12.90;90.10
19813;DHT22;10066;48.108;11.448;2024-02-26T12:30:27;12.70;87.00
19813;DHT22;10066;48.108;11.448;2024-02-26T12:32:56;12.50;84.00
19813;DHT22;10066;48.108;11.448;2024-02-26T12:35:25;12.30;82.30
19813;DHT22;10066;48.108;11.448;2024-02-26T12:37:52;12.30;87.60
19813;DHT22;10066;48.108;11.448;2024-02-26T12:40:22;12.30;86.90
19813;DHT22;10066;48.108;11.448;2024-02-26T12:42:49;12.30;85.20
19813;DHT22;10066;48.108;11.448;2024-02-26T12:45:16;12.30;86.50
19813;DHT22;10066;48.108;11.448;2024-02-26T12:47:44;12.30;85.90
19813;DHT22;10066;48.108;11.448;2024-02-26T12:50:12;12.20;87.40
19813;DHT22;10066;48.108;11.448;2024-02-26T12:52:40;12.00;85.10
19813;DHT22;10066;48.108;11.448;2024-02-26T12:55:08;11.90;87.10
19813;DHT22;10066;48.108;11.448;2024-02-26T12:57:38;11.80;88.60
19813;DHT22;10066;48.108;11.448;2024-02-26T13:00:06;11.80;90.80
19813;DHT22;10066;48.108;11.448;2024-02-26T13:02:35;11.70;91.60
19813;DHT22;10066;48.108;11.448;2024-02-26T13:05:03;11.80;92.40
19813;DHT22;10066;48.108;11.448;2024-02-26T13:07:31;11.90;92.20
19813;DHT22;10066;48.108;11.448;2024-02-26T13:09:58;11.80;92.50
19813;DHT22;10066;48.108;11.448;2024-02-26T13:12:26;11.90;92.70
19813;DHT22;10066;48.108;11.448;2024-02-26T13:15:01;11.80;92.60
19813;DHT22;10066;48.108;11.448;2024-02-26T13:17:31;11.80;92.10
19813;DHT22;10066;48.108;11.448;2024-02-26T13:19:58;11.80;92.80
19813;DHT22;10066;48.108;11.448;2024-02-26T13:22:25;11.80;92.60
19813;DHT22;10066;48.108;11.448;2024-02-26T13:24:56;11.70;92.90
19813;DHT22;10066;48.108;11.448;2024-02-26T13:27:23;11.80;92.20
19813;DHT22;10066;48.108;11.448;2024-02-26T13:30:04;11.80;93.30
19813;DHT22;10066;48.108;11.448;2024-02-26T13:32:33;11.70;92.40
19813;DHT22;10066;48.108;11.448;2024-02-26T13:35:07;11.60;93.10
19813;DHT22;10066;48.108;11.448;2024-02-26T13:37:36;11.50;92.70
19813;DHT22;10066;48.108;11.448;2024-02-26T13:40:07;11.60;93.90
19813;DHT22;10066;48.108;11.448;2024-02-26T13:42:34;11.60;93.10
19813;DHT22;10066;48.108;11.448;2024-02-26T13:45:04;11.50;92.80
19813;DHT22;10066;48.108;11.448;2024-02-26T13:47:32;11.60;93.00
19813;DHT22;10066;48.108;11.448;2024-02-26T13:49:59;11.60;93.00
19813;DHT22;10066;48.108;11.448;2024-02-26T13:52:27;11.50;93.40
19813;DHT22;10066;48.108;11.448;2024-02-26T13:54:54;11.50;92.90
19813;DHT22;10066;48.108;11.448;2024-02-26T13:57:21;11.50;93.00
19813;DHT22;10066;48.108;11.448;2024-02-26T13:59:49;11.50;92.80
19813;DHT22;10066;48.108;11.448;2024-02-26T14:02:18;11.40;93.20
19813;DHT22;10066;48.108;11.448;2024-02-26T14:04:46;11.40;93.10
19813;DHT22;10066;48.108;11.448;2024-02-26T14:07:15;11.30;92.10
19813;DHT22;10066;48.108;11.448;2024-02-26T14:09:42;11.20;91.80
19813;DHT22;10066;48.108;11.448;2024-02-26T14:12:10;11.20;92.20
19813;DHT22;10066;48.108;11.448;2024-02-26T14:14:37;11.20;92.60
19813;DHT22;10066;48.108;11.448;2024-02-26T14:17:06;11.10;93.30
19813;DHT22;10066;48.108;11.448;2024-02-26T14:19:35;11.10;93.80
19813;DHT22;10066;48.108;11.448;2024-02-26T14:22:04;11.20;94.40
19813;DHT22;10066;48.108;11.448;2024-02-26T14:24:31;11.20;94.50
19813;DHT22;10066;48.108;11.448;2024-02-26T14:26:58;11.10;94.70
19813;DHT22;10066;48.108;11.448;2024-02-26T14:29:25;11.10;94.50
19813;DHT22;10066;48.108;11.448;2024-02-26T14:31:52;11.10;93.80
19813;DHT22;10066;48.108;11.448;2024-02-26T14:34:22;11.00;93.90
19813;DHT22;10066;48.108;11.448;2024-02-26T14:36:50;11.10;94.40
19813;DHT22;10066;48.108;11.448;2024-02-26T14:39:17;11.00;94.20
19813;DHT22;10066;48.108;11.448;2024-02-26T14:41:44;11.10;94.40
19813;DHT22;10066;48.108;11.448;2024-02-26T14:44:11;11.10;94.70
19813;DHT22;10066;48.108;11.448;2024-02-26T14:46:38;11.10;94.20
19813;DHT22;10066;48.108;11.448;2024-02-26T14:49:05;11.10;94.00
19813;DHT22;10066;48.108;11.448;2024-02-26T14:51:32;11.00;93.60
19813;DHT22;10066;48.108;11.448;2024-02-26T14:54:00;11.00;93.40
19813;DHT22;10066;48.108;11.448;2024-02-26T14:56:28;11.00;93.60
19813;DHT22;10066;48.108;11.448;2024-02-26T14:58:55;11.00;93.10
19813;DHT22;10066;48.108;11.448;2024-02-26T15:01:23;10.90;93.20
19813;DHT22;10066;48.108;11.448;2024-02-26T15:03:50;10.90;93.40
19813;DHT22;10066;48.108;11.448;2024-02-26T15:06:17;10.90;93.60
19813;DHT22;10066;48.108;11.448;2024-02-26T15:08:44;10.90;93.20
19813;DHT22;10066;48.108;11.448;2024-02-26T15:11:13;10.90;93.20
19813;DHT22;10066;48.108;11.448;2024-02-26T15:13:41;10.90;93.90
19813;DHT22;10066;48.108;11.448;2024-02-26T15:16:08;10.90;94.50
19813;DHT22;10066;48.108;11.448;2024-02-26T15:18:37;10.80;93.40
19813;DHT22;10066;48.108;11.448;2024-02-26T15:21:04;10.80;93.60
19813;DHT22;10066;48.108;11.448;2024-02-26T15:23:32;10.80;93.60
19813;DHT22;10066;48.108;11.448;2024-02-26T15:26:01;10.80;93.90
19813;DHT22;10066;48.108;11.448;2024-02-26T15:28:30;10.70;93.10
19813;DHT22;10066;48.108;11.448;2024-02-26T15:30:57;10.70;93.90
19813;DHT22;10066;48.108;11.448;2024-02-26T15:33:24;10.70;93.90